sensor_id;sensor_type;location;lat;lon;timestamp;P1;durP1;ratioP1;P2;durP2;ratioP2
59530;SDS011;45349;48.692;8.186;2022-10-16T00:00:42;2.00;;;0.60;;
59530;SDS011;45349;48.692;8.186;2022-10-16T00:03:09;4.00;;;0.97;;
59530;SDS011;45349;48.692;8.186;2022-10-16T00:05:40;1.40;;;0.70;;
59530;SDS011;45349;48.692;8.186;2022-10-16T00:08:08;2.10;;;0.60;;
59530;SDS011;45349;48.692;8.186;2022-10-16T00:10:37;3.57;;;0.60;;
59530;SDS011;45349;48.692;8.186;2022-10-16T00:13:04;2.43;;;0.70;;
59530;SDS011;45349;48.692;8.186;2022-10-16T00:15:33;4.53;;;0.80;;
59530;SDS011;45349;48.692;8.186;2022-10-16T00:18:02;3.20;;;0.70;;
59530;SDS011;45349;48.692;8.186;2022-10-16T00:20:29;4.10;;;0.80;;
59530;SDS011;45349;48.692;8.186;2022-10-16T00:22:56;4.30;;;0.60;;
59530;SDS011;45349;48.692;8.186;2022-10-16T00:25:23;1.17;;;0.70;;
59530;SDS011;45349;48.692;8.186;2022-10-16T00:27:49;2.57;;;0.57;;
59530;SDS011;45349;48.692;8.186;2022-10-16T00:30:16;2.03;;;0.60;;
59530;SDS011;45349;48.692;8.186;2022-10-16T00:32:44;3.47;;;0.47;;
59530;SDS011;45349;48.692;8.186;2022-10-16T00:35:10;1.90;;;0.70;;
59530;SDS011;45349;48.692;8.186;2022-10-16T00:37:37;2.50;;;0.70;;
59530;SDS011;45349;48.692;8.186;2022-10-16T00:40:04;3.40;;;0.80;;
59530;SDS011;45349;48.692;8.186;2022-10-16T00:42:31;2.40;;;0.50;;
59530;SDS011;45349;48.692;8.186;2022-10-16T00:44:58;6.77;;;1.03;;
59530;SDS011;45349;48.692;8.186;2022-10-16T00:47:26;2.20;;;0.60;;
59530;SDS011;45349;48.692;8.186;2022-10-16T00:49:58;2.60;;;0.60;;
59530;SDS011;45349;48.692;8.186;2022-10-16T00:52:28;4.60;;;0.90;;
59530;SDS011;45349;48.692;8.186;2022-10-16T00:54:55;2.83;;;0.80;;
59530;SDS011;45349;48.692;8.186;2022-10-16T00:57:23;3.40;;;0.77;;
59530;SDS011;45349;48.692;8.186;2022-10-16T00:59:51;2.53;;;0.87;;
59530;SDS011;45349;48.692;8.186;2022-10-16T01:02:19;4.90;;;0.60;;
59530;SDS011;45349;48.692;8.186;2022-10-16T01:04:46;4.23;;;0.93;;
59530;SDS011;45349;48.692;8.186;2022-10-16T01:07:19;3.20;;;0.97;;
59530;SDS011;45349;48.692;8.186;2022-10-16T01:09:55;3.60;;;0.73;;
59530;SDS011;45349;48.692;8.186;2022-10-16T01:12:32;2.00;;;1.00;;
59530;SDS011;45349;48.692;8.186;2022-10-16T01:15:06;2.57;;;0.80;;
59530;SDS011;45349;48.692;8.186;2022-10-16T01:17:38;5.07;;;0.90;;
59530;SDS011;45349;48.692;8.186;2022-10-16T01:20:10;2.57;;;0.60;;
59530;SDS011;45349;48.692;8.186;2022-10-16T01:22:50;5.00;;;0.80;;
59530;SDS011;45349;48.692;8.186;2022-10-16T01:25:30;6.17;;;0.90;;
59530;SDS011;45349;48.692;8.186;2022-10-16T01:28:09;4.97;;;1.00;;
59530;SDS011;45349;48.692;8.186;2022-10-16T01:30:39;1.30;;;0.70;;
59530;SDS011;45349;48.692;8.186;2022-10-16T01:33:09;6.17;;;0.87;;
59530;SDS011;45349;48.692;8.186;2022-10-16T01:35:42;1.53;;;1.00;;
59530;SDS011;45349;48.692;8.186;2022-10-16T01:38:12;3.50;;;0.93;;
59530;SDS011;45349;48.692;8.186;2022-10-16T01:40:44;6.10;;;0.70;;
59530;SDS011;45349;48.692;8.186;2022-10-16T01:43:19;2.40;;;0.90;;
59530;SDS011;45349;48.692;8.186;2022-10-16T01:45:48;1.73;;;1.00;;
59530;SDS011;45349;48.692;8.186;2022-10-16T01:48:19;3.13;;;0.80;;
59530;SDS011;45349;48.692;8.186;2022-10-16T01:50:49;4.30;;;0.80;;
59530;SDS011;45349;48.692;8.186;2022-10-16T01:53:20;6.27;;;0.93;;
59530;SDS011;45349;48.692;8.186;2022-10-16T01:55:49;6.23;;;1.20;;
59530;SDS011;45349;48.692;8.186;2022-10-16T01:58:20;3.93;;;1.03;;
59530;SDS011;45349;48.692;8.186;2022-10-16T02:00:50;2.63;;;0.70;;
59530;SDS011;45349;48.692;8.186;2022-10-16T02:03:22;2.53;;;1.00;;
59530;SDS011;45349;48.692;8.186;2022-10-16T02:05:49;11.73;;;1.17;;
59530;SDS011;45349;48.692;8.186;2022-10-16T02:08:18;2.60;;;0.70;;
59530;SDS011;45349;48.692;8.186;2022-10-16T02:10:44;3.00;;;0.70;;
59530;SDS011;45349;48.692;8.186;2022-10-16T02:13:11;11.53;;;1.00;;
59530;SDS011;45349;48.692;8.186;2022-10-16T02:15:43;3.67;;;1.00;;
59530;SDS011;45349;48.692;8.186;2022-10-16T02:18:11;8.70;;;1.20;;
59530;SDS011;45349;48.692;8.186;2022-10-16T02:20:40;9.80;;;1.37;;
59530;SDS011;45349;48.692;8.186;2022-10-16T02:23:16;12.03;;;1.03;;
59530;SDS011;45349;48.692;8.186;2022-10-16T02:25:50;9.17;;;1.07;;
59530;SDS011;45349;48.692;8.186;2022-10-16T02:28:22;7.70;;;1.07;;
59530;SDS011;45349;48.692;8.186;2022-10-16T02:30:55;5.17;;;1.10;;
59530;SDS011;45349;48.692;8.186;2022-10-16T02:33:24;2.90;;;0.90;;
59530;SDS011;45349;48.692;8.186;2022-10-16T02:35:53;5.80;;;0.80;;
59530;SDS011;45349;48.692;8.186;2022-10-16T02:38:20;3.50;;;0.80;;
59530;SDS011;45349;48.692;8.186;2022-10-16T02:40:48;5.90;;;0.80;;
59530;SDS011;45349;48.692;8.186;2022-10-16T02:43:15;3.50;;;0.83;;
59530;SDS011;45349;48.692;8.186;2022-10-16T02:45:42;4.37;;;0.80;;
59530;SDS011;45349;48.692;8.186;2022-10-16T02:48:10;4.40;;;1.00;;
59530;SDS011;45349;48.692;8.186;2022-10-16T02:50:37;6.13;;;0.93;;
59530;SDS011;45349;48.692;8.186;2022-10-16T02:53:03;4.40;;;0.60;;
59530;SDS011;45349;48.692;8.186;2022-10-16T02:55:30;6.93;;;0.80;;
59530;SDS011;45349;48.692;8.186;2022-10-16T02:57:57;3.40;;;0.80;;
59530;SDS011;45349;48.692;8.186;2022-10-16T03:03:02;3.40;;;0.93;;
59530;SDS011;45349;48.692;8.186;2022-10-16T03:05:30;4.53;;;0.90;;
59530;SDS011;45349;48.692;8.186;2022-10-16T03:07:57;9.40;;;1.87;;
59530;SDS011;45349;48.692;8.186;2022-10-16T03:10:25;1.97;;;0.80;;
59530;SDS011;45349;48.692;8.186;2022-10-16T03:12:51;4.50;;;1.30;;
59530;SDS011;45349;48.692;8.186;2022-10-16T03:15:18;4.10;;;1.03;;
59530;SDS011;45349;48.692;8.186;2022-10-16T03:17:44;2.17;;;0.90;;
59530;SDS011;45349;48.692;8.186;2022-10-16T03:20:11;3.90;;;0.73;;
59530;SDS011;45349;48.692;8.186;2022-10-16T03:22:39;5.00;;;1.17;;
59530;SDS011;45349;48.692;8.186;2022-10-16T03:25:06;4.93;;;1.07;;
59530;SDS011;45349;48.692;8.186;2022-10-16T03:27:33;5.80;;;1.10;;
59530;SDS011;45349;48.692;8.186;2022-10-16T03:30:00;5.83;;;1.30;;
59530;SDS011;45349;48.692;8.186;2022-10-16T03:32:26;2.53;;;0.90;;
59530;SDS011;45349;48.692;8.186;2022-10-16T03:34:53;3.03;;;1.00;;
59530;SDS011;45349;48.692;8.186;2022-10-16T03:37:21;3.30;;;0.90;;
59530;SDS011;45349;48.692;8.186;2022-10-16T03:39:49;5.43;;;1.00;;
59530;SDS011;45349;48.692;8.186;2022-10-16T03:42:16;2.40;;;0.83;;
59530;SDS011;45349;48.692;8.186;2022-10-16T03:44:42;4.30;;;1.10;;
59530;SDS011;45349;48.692;8.186;2022-10-16T03:47:09;5.13;;;0.90;;
59530;SDS011;45349;48.692;8.186;2022-10-16T03:49:35;3.07;;;0.90;;
59530;SDS011;45349;48.692;8.186;2022-10-16T03:52:02;2.67;;;0.80;;
59530;SDS011;45349;48.692;8.186;2022-10-16T03:54:29;1.17;;;0.90;;
59530;SDS011;45349;48.692;8.186;2022-10-16T03:56:56;3.13;;;0.83;;
59530;SDS011;45349;48.692;8.186;2022-10-16T03:59:23;4.87;;;1.00;;
59530;SDS011;45349;48.692;8.186;2022-10-16T04:01:49;4.77;;;1.20;;
59530;SDS011;45349;48.692;8.186;2022-10-16T04:04:16;3.17;;;0.93;;
59530;SDS011;45349;48.692;8.186;2022-10-16T04:06:43;3.03;;;1.00;;
59530;SDS011;45349;48.692;8.186;2022-10-16T04:09:09;6.40;;;1.77;;
59530;SDS011;45349;48.692;8.186;2022-10-16T04:11:36;4.60;;;1.40;;
59530;SDS011;45349;48.692;8.186;2022-10-16T04:14:04;7.67;;;1.20;;
59530;SDS011;45349;48.692;8.186;2022-10-16T04:16:30;3.23;;;1.60;;
59530;SDS011;45349;48.692;8.186;2022-10-16T04:18:57;7.63;;;1.37;;
59530;SDS011;45349;48.692;8.186;2022-10-16T04:21:23;7.40;;;1.57;;
59530;SDS011;45349;48.692;8.186;2022-10-16T04:23:50;6.43;;;1.60;;
59530;SDS011;45349;48.692;8.186;2022-10-16T04:26:17;7.40;;;1.40;;
59530;SDS011;45349;48.692;8.186;2022-10-16T04:28:43;7.23;;;2.30;;
59530;SDS011;45349;48.692;8.186;2022-10-16T04:31:11;9.37;;;1.90;;
59530;SDS011;45349;48.692;8.186;2022-10-16T04:33:38;2.47;;;1.47;;
59530;SDS011;45349;48.692;8.186;2022-10-16T04:36:04;3.50;;;1.83;;
59530;SDS011;45349;48.692;8.186;2022-10-16T04:38:31;3.93;;;1.70;;
59530;SDS011;45349;48.692;8.186;2022-10-16T04:40:58;2.83;;;1.57;;
59530;SDS011;45349;48.692;8.186;2022-10-16T04:43:24;4.30;;;1.60;;
59530;SDS011;45349;48.692;8.186;2022-10-16T04:45:51;4.47;;;1.30;;
59530;SDS011;45349;48.692;8.186;2022-10-16T04:48:21;3.60;;;1.43;;
59530;SDS011;45349;48.692;8.186;2022-10-16T04:50:47;7.03;;;1.60;;
59530;SDS011;45349;48.692;8.186;2022-10-16T04:53:14;8.83;;;1.70;;
59530;SDS011;45349;48.692;8.186;2022-10-16T04:55:41;3.83;;;1.60;;
59530;SDS011;45349;48.692;8.186;2022-10-16T04:58:08;4.60;;;1.40;;
59530;SDS011;45349;48.692;8.186;2022-10-16T05:00:35;12.00;;;3.10;;
59530;SDS011;45349;48.692;8.186;2022-10-16T05:03:03;4.73;;;1.47;;
59530;SDS011;45349;48.692;8.186;2022-10-16T05:05:34;4.80;;;1.40;;
59530;SDS011;45349;48.692;8.186;2022-10-16T05:08:00;2.03;;;1.27;;
59530;SDS011;45349;48.692;8.186;2022-10-16T05:10:28;4.30;;;1.37;;
59530;SDS011;45349;48.692;8.186;2022-10-16T05:12:54;6.17;;;1.30;;
59530;SDS011;45349;48.692;8.186;2022-10-16T05:15:21;5.00;;;1.40;;
59530;SDS011;45349;48.692;8.186;2022-10-16T05:17:51;9.77;;;1.60;;
59530;SDS011;45349;48.692;8.186;2022-10-16T05:20:19;7.70;;;1.33;;
59530;SDS011;45349;48.692;8.186;2022-10-16T05:22:50;9.07;;;1.47;;
59530;SDS011;45349;48.692;8.186;2022-10-16T05:25:16;4.93;;;3.00;;
59530;SDS011;45349;48.692;8.186;2022-10-16T05:27:43;3.37;;;2.40;;
59530;SDS011;45349;48.692;8.186;2022-10-16T05:30:13;3.63;;;2.63;;
59530;SDS011;45349;48.692;8.186;2022-10-16T05:32:40;4.53;;;1.60;;
59530;SDS011;45349;48.692;8.186;2022-10-16T05:35:07;5.23;;;1.70;;
59530;SDS011;45349;48.692;8.186;2022-10-16T05:37:33;5.03;;;2.03;;
59530;SDS011;45349;48.692;8.186;2022-10-16T05:40:02;7.43;;;2.70;;
59530;SDS011;45349;48.692;8.186;2022-10-16T05:42:30;4.30;;;1.97;;
59530;SDS011;45349;48.692;8.186;2022-10-16T05:44:56;5.80;;;1.70;;
59530;SDS011;45349;48.692;8.186;2022-10-16T05:47:23;6.40;;;1.73;;
59530;SDS011;45349;48.692;8.186;2022-10-16T05:49:49;7.17;;;2.30;;
59530;SDS011;45349;48.692;8.186;2022-10-16T05:52:16;8.70;;;1.60;;
59530;SDS011;45349;48.692;8.186;2022-10-16T05:54:42;4.27;;;1.50;;
59530;SDS011;45349;48.692;8.186;2022-10-16T05:57:10;8.13;;;1.80;;
59530;SDS011;45349;48.692;8.186;2022-10-16T05:59:37;5.47;;;1.67;;
59530;SDS011;45349;48.692;8.186;2022-10-16T06:02:05;10.67;;;1.90;;
59530;SDS011;45349;48.692;8.186;2022-10-16T06:04:31;4.30;;;1.80;;
59530;SDS011;45349;48.692;8.186;2022-10-16T06:06:58;4.37;;;2.67;;
59530;SDS011;45349;48.692;8.186;2022-10-16T06:09:26;10.50;;;2.90;;
59530;SDS011;45349;48.692;8.186;2022-10-16T06:11:53;5.23;;;1.90;;
59530;SDS011;45349;48.692;8.186;2022-10-16T06:14:20;2.90;;;1.60;;
59530;SDS011;45349;48.692;8.186;2022-10-16T06:16:47;4.73;;;1.57;;
59530;SDS011;45349;48.692;8.186;2022-10-16T06:19:14;3.07;;;1.67;;
59530;SDS011;45349;48.692;8.186;2022-10-16T06:21:41;4.57;;;1.60;;
59530;SDS011;45349;48.692;8.186;2022-10-16T06:24:08;4.83;;;1.60;;
59530;SDS011;45349;48.692;8.186;2022-10-16T06:26:34;3.93;;;1.37;;
59530;SDS011;45349;48.692;8.186;2022-10-16T06:29:01;5.77;;;1.57;;
59530;SDS011;45349;48.692;8.186;2022-10-16T06:31:29;8.20;;;1.97;;
59530;SDS011;45349;48.692;8.186;2022-10-16T06:33:58;6.37;;;1.70;;
59530;SDS011;45349;48.692;8.186;2022-10-16T06:36:26;5.00;;;1.57;;
59530;SDS011;45349;48.692;8.186;2022-10-16T06:38:53;10.47;;;1.93;;
59530;SDS011;45349;48.692;8.186;2022-10-16T06:41:20;8.87;;;3.47;;
59530;SDS011;45349;48.692;8.186;2022-10-16T06:43:48;9.10;;;2.97;;
59530;SDS011;45349;48.692;8.186;2022-10-16T06:46:16;9.43;;;2.60;;
59530;SDS011;45349;48.692;8.186;2022-10-16T06:48:46;6.73;;;2.60;;
59530;SDS011;45349;48.692;8.186;2022-10-16T06:51:13;5.60;;;2.50;;
59530;SDS011;45349;48.692;8.186;2022-10-16T06:53:41;5.60;;;2.40;;
59530;SDS011;45349;48.692;8.186;2022-10-16T06:56:09;4.90;;;2.70;;
59530;SDS011;45349;48.692;8.186;2022-10-16T06:58:37;5.30;;;3.27;;
59530;SDS011;45349;48.692;8.186;2022-10-16T07:01:04;3.03;;;2.30;;
59530;SDS011;45349;48.692;8.186;2022-10-16T07:03:31;8.90;;;2.87;;
59530;SDS011;45349;48.692;8.186;2022-10-16T07:06:02;6.70;;;2.80;;
59530;SDS011;45349;48.692;8.186;2022-10-16T07:08:30;8.47;;;3.13;;
59530;SDS011;45349;48.692;8.186;2022-10-16T07:11:00;4.03;;;2.00;;
59530;SDS011;45349;48.692;8.186;2022-10-16T07:13:28;2.50;;;1.80;;
59530;SDS011;45349;48.692;8.186;2022-10-16T07:15:55;3.80;;;2.03;;
59530;SDS011;45349;48.692;8.186;2022-10-16T07:18:23;5.07;;;2.07;;
59530;SDS011;45349;48.692;8.186;2022-10-16T07:20:52;5.10;;;1.50;;
59530;SDS011;45349;48.692;8.186;2022-10-16T07:23:20;3.60;;;1.20;;
59530;SDS011;45349;48.692;8.186;2022-10-16T07:25:52;1.23;;;0.93;;
59530;SDS011;45349;48.692;8.186;2022-10-16T07:28:20;4.83;;;1.33;;
59530;SDS011;45349;48.692;8.186;2022-10-16T07:30:47;3.83;;;1.23;;
59530;SDS011;45349;48.692;8.186;2022-10-16T07:33:16;1.47;;;1.30;;
59530;SDS011;45349;48.692;8.186;2022-10-16T07:35:50;2.10;;;1.63;;
59530;SDS011;45349;48.692;8.186;2022-10-16T07:38:17;7.40;;;1.53;;
59530;SDS011;45349;48.692;8.186;2022-10-16T07:40:46;3.03;;;1.23;;
59530;SDS011;45349;48.692;8.186;2022-10-16T07:43:12;5.50;;;1.77;;
59530;SDS011;45349;48.692;8.186;2022-10-16T07:45:46;3.60;;;2.43;;
59530;SDS011;45349;48.692;8.186;2022-10-16T07:48:13;5.57;;;2.50;;
59530;SDS011;45349;48.692;8.186;2022-10-16T07:50:39;4.47;;;2.57;;
59530;SDS011;45349;48.692;8.186;2022-10-16T07:53:06;5.53;;;2.03;;
59530;SDS011;45349;48.692;8.186;2022-10-16T07:55:33;4.30;;;2.30;;
59530;SDS011;45349;48.692;8.186;2022-10-16T07:58:01;7.83;;;2.50;;
59530;SDS011;45349;48.692;8.186;2022-10-16T08:00:27;4.33;;;1.97;;
59530;SDS011;45349;48.692;8.186;2022-10-16T08:02:54;5.30;;;2.00;;
59530;SDS011;45349;48.692;8.186;2022-10-16T08:05:21;4.83;;;2.20;;
59530;SDS011;45349;48.692;8.186;2022-10-16T08:07:50;4.07;;;1.73;;
59530;SDS011;45349;48.692;8.186;2022-10-16T08:10:17;4.70;;;1.97;;
59530;SDS011;45349;48.692;8.186;2022-10-16T08:12:45;8.43;;;2.40;;
59530;SDS011;45349;48.692;8.186;2022-10-16T08:15:13;3.37;;;2.20;;
59530;SDS011;45349;48.692;8.186;2022-10-16T08:17:39;12.10;;;2.13;;
59530;SDS011;45349;48.692;8.186;2022-10-16T08:20:06;5.50;;;1.90;;
59530;SDS011;45349;48.692;8.186;2022-10-16T08:22:34;8.23;;;2.03;;
59530;SDS011;45349;48.692;8.186;2022-10-16T08:25:00;11.50;;;2.40;;
59530;SDS011;45349;48.692;8.186;2022-10-16T08:27:30;4.53;;;1.30;;
59530;SDS011;45349;48.692;8.186;2022-10-16T08:29:57;6.07;;;1.37;;
59530;SDS011;45349;48.692;8.186;2022-10-16T08:32:25;2.23;;;1.50;;
59530;SDS011;45349;48.692;8.186;2022-10-16T08:34:52;3.53;;;1.67;;
59530;SDS011;45349;48.692;8.186;2022-10-16T08:37:18;6.37;;;2.67;;
59530;SDS011;45349;48.692;8.186;2022-10-16T08:39:45;4.07;;;2.33;;
59530;SDS011;45349;48.692;8.186;2022-10-16T08:42:15;4.70;;;1.90;;
59530;SDS011;45349;48.692;8.186;2022-10-16T08:44:59;10.80;;;2.30;;
59530;SDS011;45349;48.692;8.186;2022-10-16T08:47:42;6.77;;;1.97;;
59530;SDS011;45349;48.692;8.186;2022-10-16T08:50:17;2.77;;;1.70;;
59530;SDS011;45349;48.692;8.186;2022-10-16T08:52:49;6.27;;;2.40;;
59530;SDS011;45349;48.692;8.186;2022-10-16T08:55:19;6.30;;;2.70;;
59530;SDS011;45349;48.692;8.186;2022-10-16T08:57:54;8.40;;;2.90;;
59530;SDS011;45349;48.692;8.186;2022-10-16T09:00:21;6.60;;;2.90;;
59530;SDS011;45349;48.692;8.186;2022-10-16T09:02:51;4.60;;;2.70;;
59530;SDS011;45349;48.692;8.186;2022-10-16T09:05:27;3.47;;;2.10;;
59530;SDS011;45349;48.692;8.186;2022-10-16T09:08:06;7.30;;;1.97;;
59530;SDS011;45349;48.692;8.186;2022-10-16T09:10:43;3.87;;;2.53;;
59530;SDS011;45349;48.692;8.186;2022-10-16T09:13:19;3.90;;;2.27;;
59530;SDS011;45349;48.692;8.186;2022-10-16T09:15:53;3.60;;;1.93;;
59530;SDS011;45349;48.692;8.186;2022-10-16T09:18:29;3.53;;;1.87;;
59530;SDS011;45349;48.692;8.186;2022-10-16T09:21:05;3.07;;;1.90;;
59530;SDS011;45349;48.692;8.186;2022-10-16T09:23:37;5.20;;;2.27;;
59530;SDS011;45349;48.692;8.186;2022-10-16T09:26:03;5.97;;;2.13;;
59530;SDS011;45349;48.692;8.186;2022-10-16T09:28:31;8.07;;;2.17;;
59530;SDS011;45349;48.692;8.186;2022-10-16T09:30:58;5.90;;;2.20;;
59530;SDS011;45349;48.692;8.186;2022-10-16T09:33:25;2.93;;;1.97;;
59530;SDS011;45349;48.692;8.186;2022-10-16T09:35:59;4.53;;;2.33;;
59530;SDS011;45349;48.692;8.186;2022-10-16T09:38:27;7.83;;;2.30;;
59530;SDS011;45349;48.692;8.186;2022-10-16T09:40:54;5.87;;;2.17;;
59530;SDS011;45349;48.692;8.186;2022-10-16T09:43:23;6.03;;;2.37;;
59530;SDS011;45349;48.692;8.186;2022-10-16T09:45:57;7.27;;;2.60;;
59530;SDS011;45349;48.692;8.186;2022-10-16T09:48:25;5.60;;;2.43;;
59530;SDS011;45349;48.692;8.186;2022-10-16T09:51:02;7.53;;;2.63;;
59530;SDS011;45349;48.692;8.186;2022-10-16T09:53:38;8.43;;;2.57;;
59530;SDS011;45349;48.692;8.186;2022-10-16T09:56:06;7.73;;;2.63;;
59530;SDS011;45349;48.692;8.186;2022-10-16T09:58:35;8.10;;;2.60;;
59530;SDS011;45349;48.692;8.186;2022-10-16T10:01:04;9.37;;;2.50;;
59530;SDS011;45349;48.692;8.186;2022-10-16T10:03:35;9.03;;;2.30;;
59530;SDS011;45349;48.692;8.186;2022-10-16T10:06:07;6.23;;;2.20;;
59530;SDS011;45349;48.692;8.186;2022-10-16T10:08:52;5.47;;;2.23;;
59530;SDS011;45349;48.692;8.186;2022-10-16T10:14:05;4.77;;;2.37;;
59530;SDS011;45349;48.692;8.186;2022-10-16T10:16:34;5.37;;;2.17;;
59530;SDS011;45349;48.692;8.186;2022-10-16T10:19:01;5.27;;;2.60;;
59530;SDS011;45349;48.692;8.186;2022-10-16T10:21:32;6.20;;;1.90;;
59530;SDS011;45349;48.692;8.186;2022-10-16T10:23:59;2.70;;;1.53;;
59530;SDS011;45349;48.692;8.186;2022-10-16T10:26:26;9.47;;;2.00;;
59530;SDS011;45349;48.692;8.186;2022-10-16T10:28:57;4.43;;;1.80;;
59530;SDS011;45349;48.692;8.186;2022-10-16T10:31:34;9.13;;;1.70;;
59530;SDS011;45349;48.692;8.186;2022-10-16T10:34:12;7.30;;;2.00;;
59530;SDS011;45349;48.692;8.186;2022-10-16T10:36:58;5.57;;;2.07;;
59530;SDS011;45349;48.692;8.186;2022-10-16T10:39:36;4.07;;;1.93;;
59530;SDS011;45349;48.692;8.186;2022-10-16T10:42:12;5.53;;;2.03;;
59530;SDS011;45349;48.692;8.186;2022-10-16T10:45:02;8.23;;;3.00;;
59530;SDS011;45349;48.692;8.186;2022-10-16T10:47:46;5.60;;;2.40;;
59530;SDS011;45349;48.692;8.186;2022-10-16T10:50:19;7.90;;;2.30;;
59530;SDS011;45349;48.692;8.186;2022-10-16T10:52:56;4.77;;;2.30;;
59530;SDS011;45349;48.692;8.186;2022-10-16T10:55:31;7.13;;;2.03;;
59530;SDS011;45349;48.692;8.186;2022-10-16T11:01:08;6.60;;;2.00;;
59530;SDS011;45349;48.692;8.186;2022-10-16T11:03:42;4.77;;;1.93;;
59530;SDS011;45349;48.692;8.186;2022-10-16T11:06:24;3.00;;;2.20;;
59530;SDS011;45349;48.692;8.186;2022-10-16T11:08:58;4.00;;;1.80;;
59530;SDS011;45349;48.692;8.186;2022-10-16T11:11:30;3.47;;;1.70;;
59530;SDS011;45349;48.692;8.186;2022-10-16T11:14:02;4.03;;;1.70;;
59530;SDS011;45349;48.692;8.186;2022-10-16T11:16:33;10.20;;;2.40;;
59530;SDS011;45349;48.692;8.186;2022-10-16T11:19:03;4.20;;;1.60;;
59530;SDS011;45349;48.692;8.186;2022-10-16T11:21:39;3.33;;;1.70;;
59530;SDS011;45349;48.692;8.186;2022-10-16T11:24:16;3.43;;;2.00;;
59530;SDS011;45349;48.692;8.186;2022-10-16T11:26:48;5.07;;;1.43;;
59530;SDS011;45349;48.692;8.186;2022-10-16T11:29:17;2.97;;;1.60;;
59530;SDS011;45349;48.692;8.186;2022-10-16T11:31:50;0.00;;;0.00;;
59530;SDS011;45349;48.692;8.186;2022-10-16T11:34:22;0.00;;;0.00;;
59530;SDS011;45349;48.692;8.186;2022-10-16T11:36:56;0.00;;;0.00;;
59530;SDS011;45349;48.692;8.186;2022-10-16T11:39:29;0.00;;;0.00;;
59530;SDS011;45349;48.692;8.186;2022-10-16T11:41:58;0.00;;;0.00;;
59530;SDS011;45349;48.692;8.186;2022-10-16T11:44:38;0.00;;;0.00;;
59530;SDS011;45349;48.692;8.186;2022-10-16T11:47:27;0.00;;;0.00;;
59530;SDS011;45349;48.692;8.186;2022-10-16T11:50:01;0.00;;;0.00;;
59530;SDS011;45349;48.692;8.186;2022-10-16T11:52:33;0.00;;;0.00;;
59530;SDS011;45349;48.692;8.186;2022-10-16T11:55:09;0.00;;;0.00;;
59530;SDS011;45349;48.692;8.186;2022-10-16T11:57:42;0.00;;;0.00;;
59530;SDS011;45349;48.692;8.186;2022-10-16T12:00:15;0.00;;;0.00;;
59530;SDS011;45349;48.692;8.186;2022-10-16T12:02:52;0.00;;;0.00;;
59530;SDS011;45349;48.692;8.186;2022-10-16T12:05:28;0.00;;;0.00;;
59530;SDS011;45349;48.692;8.186;2022-10-16T12:08:04;0.00;;;0.00;;
59530;SDS011;45349;48.692;8.186;2022-10-16T12:10:40;0.00;;;0.00;;
59530;SDS011;45349;48.692;8.186;2022-10-16T12:16:03;0.00;;;0.00;;
59530;SDS011;45349;48.692;8.186;2022-10-16T12:18:31;0.00;;;0.00;;
59530;SDS011;45349;48.692;8.186;2022-10-16T12:20:58;0.00;;;0.00;;
59530;SDS011;45349;48.692;8.186;2022-10-16T12:23:30;0.00;;;0.00;;
59530;SDS011;45349;48.692;8.186;2022-10-16T12:25:59;0.00;;;0.00;;
59530;SDS011;45349;48.692;8.186;2022-10-16T12:28:28;0.00;;;0.00;;
59530;SDS011;45349;48.692;8.186;2022-10-16T12:30:57;0.00;;;0.00;;
59530;SDS011;45349;48.692;8.186;2022-10-16T12:33:29;0.00;;;0.00;;
59530;SDS011;45349;48.692;8.186;2022-10-16T12:35:57;0.00;;;0.00;;
59530;SDS011;45349;48.692;8.186;2022-10-16T12:38:27;0.00;;;0.00;;
59530;SDS011;45349;48.692;8.186;2022-10-16T12:40:57;0.00;;;0.00;;
59530;SDS011;45349;48.692;8.186;2022-10-16T12:43:34;0.00;;;0.00;;
59530;SDS011;45349;48.692;8.186;2022-10-16T12:46:05;0.00;;;0.00;;
59530;SDS011;45349;48.692;8.186;2022-10-16T12:48:47;0.00;;;0.00;;
59530;SDS011;45349;48.692;8.186;2022-10-16T12:51:22;0.00;;;0.00;;
59530;SDS011;45349;48.692;8.186;2022-10-16T12:54:00;0.00;;;0.00;;
59530;SDS011;45349;48.692;8.186;2022-10-16T12:56:31;0.00;;;0.00;;
59530;SDS011;45349;48.692;8.186;2022-10-16T12:59:09;0.00;;;0.00;;
59530;SDS011;45349;48.692;8.186;2022-10-16T13:01:51;0.00;;;0.00;;
59530;SDS011;45349;48.692;8.186;2022-10-16T13:04:37;0.00;;;0.00;;
59530;SDS011;45349;48.692;8.186;2022-10-16T13:07:23;0.00;;;0.00;;
59530;SDS011;45349;48.692;8.186;2022-10-16T13:10:06;0.00;;;0.00;;
59530;SDS011;45349;48.692;8.186;2022-10-16T13:12:47;0.00;;;0.00;;
59530;SDS011;45349;48.692;8.186;2022-10-16T13:15:31;0.00;;;0.00;;
59530;SDS011;45349;48.692;8.186;2022-10-16T13:18:15;0.00;;;0.00;;
59530;SDS011;45349;48.692;8.186;2022-10-16T13:20:56;0.00;;;0.00;;
59530;SDS011;45349;48.692;8.186;2022-10-16T13:23:36;0.00;;;0.00;;
59530;SDS011;45349;48.692;8.186;2022-10-16T13:26:14;0.00;;;0.00;;
59530;SDS011;45349;48.692;8.186;2022-10-16T13:28:49;0.00;;;0.00;;
59530;SDS011;45349;48.692;8.186;2022-10-16T13:31:17;0.00;;;0.00;;
59530;SDS011;45349;48.692;8.186;2022-10-16T13:33:47;0.00;;;0.00;;
59530;SDS011;45349;48.692;8.186;2022-10-16T13:36:19;0.00;;;0.00;;
59530;SDS011;45349;48.692;8.186;2022-10-16T13:38:47;0.00;;;0.00;;
59530;SDS011;45349;48.692;8.186;2022-10-16T13:41:15;0.00;;;0.00;;
59530;SDS011;45349;48.692;8.186;2022-10-16T13:43:45;0.00;;;0.00;;
59530;SDS011;45349;48.692;8.186;2022-10-16T13:46:17;0.00;;;0.00;;
59530;SDS011;45349;48.692;8.186;2022-10-16T13:48:56;0.00;;;0.00;;
59530;SDS011;45349;48.692;8.186;2022-10-16T13:51:23;0.00;;;0.00;;
59530;SDS011;45349;48.692;8.186;2022-10-16T13:53:50;0.00;;;0.00;;
59530;SDS011;45349;48.692;8.186;2022-10-16T13:56:18;0.00;;;0.00;;
59530;SDS011;45349;48.692;8.186;2022-10-16T13:58:46;0.00;;;0.00;;
59530;SDS011;45349;48.692;8.186;2022-10-16T14:01:25;0.00;;;0.00;;
59530;SDS011;45349;48.692;8.186;2022-10-16T14:03:59;0.00;;;0.00;;
59530;SDS011;45349;48.692;8.186;2022-10-16T14:06:28;0.00;;;0.00;;
59530;SDS011;45349;48.692;8.186;2022-10-16T14:08:59;0.00;;;0.00;;
59530;SDS011;45349;48.692;8.186;2022-10-16T14:11:27;0.00;;;0.00;;
59530;SDS011;45349;48.692;8.186;2022-10-16T14:13:55;0.00;;;0.00;;
59530;SDS011;45349;48.692;8.186;2022-10-16T14:16:23;0.00;;;0.00;;
59530;SDS011;45349;48.692;8.186;2022-10-16T14:18:56;0.00;;;0.00;;
59530;SDS011;45349;48.692;8.186;2022-10-16T14:21:24;0.00;;;0.00;;
59530;SDS011;45349;48.692;8.186;2022-10-16T14:23:51;0.00;;;0.00;;
59530;SDS011;45349;48.692;8.186;2022-10-16T14:26:20;0.00;;;0.00;;
59530;SDS011;45349;48.692;8.186;2022-10-16T14:28:49;0.00;;;0.00;;
59530;SDS011;45349;48.692;8.186;2022-10-16T14:31:29;0.00;;;0.00;;
59530;SDS011;45349;48.692;8.186;2022-10-16T14:33:57;0.00;;;0.00;;
59530;SDS011;45349;48.692;8.186;2022-10-16T14:36:25;0.00;;;0.00;;
59530;SDS011;45349;48.692;8.186;2022-10-16T14:39:00;0.00;;;0.00;;
59530;SDS011;45349;48.692;8.186;2022-10-16T14:41:30;0.00;;;0.00;;
59530;SDS011;45349;48.692;8.186;2022-10-16T14:44:00;0.00;;;0.00;;
59530;SDS011;45349;48.692;8.186;2022-10-16T14:46:31;0.00;;;0.00;;
59530;SDS011;45349;48.692;8.186;2022-10-16T14:49:04;0.00;;;0.00;;
59530;SDS011;45349;48.692;8.186;2022-10-16T14:51:42;0.00;;;0.00;;
59530;SDS011;45349;48.692;8.186;2022-10-16T14:54:10;0.00;;;0.00;;
59530;SDS011;45349;48.692;8.186;2022-10-16T14:56:42;0.00;;;0.00;;
59530;SDS011;45349;48.692;8.186;2022-10-16T14:59:12;0.00;;;0.00;;
59530;SDS011;45349;48.692;8.186;2022-10-16T15:01:44;0.00;;;0.00;;
59530;SDS011;45349;48.692;8.186;2022-10-16T15:04:11;0.00;;;0.00;;
59530;SDS011;45349;48.692;8.186;2022-10-16T15:06:38;0.00;;;0.00;;
59530;SDS011;45349;48.692;8.186;2022-10-16T15:09:05;0.00;;;0.00;;
59530;SDS011;45349;48.692;8.186;2022-10-16T15:11:31;0.00;;;0.00;;
59530;SDS011;45349;48.692;8.186;2022-10-16T15:13:59;0.00;;;0.00;;
59530;SDS011;45349;48.692;8.186;2022-10-16T15:16:25;0.00;;;0.00;;